sensor_id;sensor_type;location;lat;lon;timestamp;P1;durP1;ratioP1;P2;durP2;ratioP2
42364;SDS011;28498;54.400;18.566;2023-02-28T00:01:25;94.75;;;44.70;;
42364;SDS011;28498;54.400;18.566;2023-02-28T00:03:53;97.35;;;44.40;;
42364;SDS011;28498;54.400;18.566;2023-02-28T00:06:20;99.30;;;42.25;;
42364;SDS011;28498;54.400;18.566;2023-02-28T00:08:48;101.35;;;48.05;;
42364;SDS011;28498;54.400;18.566;2023-02-28T00:11:15;125.57;;;55.53;;
42364;SDS011;28498;54.400;18.566;2023-02-28T00:13:44;121.18;;;55.35;;
42364;SDS011;28498;54.400;18.566;2023-02-28T00:16:16;102.82;;;47.28;;
42364;SDS011;28498;54.400;18.566;2023-02-28T00:18:46;111.78;;;50.17;;
42364;SDS011;28498;54.400;18.566;2023-02-28T00:21:16;107.80;;;49.63;;
42364;SDS011;28498;54.400;18.566;2023-02-28T00:23:45;100.78;;;46.50;;
42364;SDS011;28498;54.400;18.566;2023-02-28T00:26:12;105.57;;;48.03;;
42364;SDS011;28498;54.400;18.566;2023-02-28T00:28:39;95.97;;;43.53;;
42364;SDS011;28498;54.400;18.566;2023-02-28T00:31:06;95.10;;;39.95;;
42364;SDS011;28498;54.400;18.566;2023-02-28T00:33:33;83.38;;;38.17;;
42364;SDS011;28498;54.400;18.566;2023-02-28T00:36:04;79.50;;;38.28;;
42364;SDS011;28498;54.400;18.566;2023-02-28T00:38:32;83.32;;;38.65;;
42364;SDS011;28498;54.400;18.566;2023-02-28T00:41:00;79.15;;;39.08;;
42364;SDS011;28498;54.400;18.566;2023-02-28T00:43:31;91.15;;;41.15;;
42364;SDS011;28498;54.400;18.566;2023-02-28T00:46:00;84.32;;;38.83;;
42364;SDS011;28498;54.400;18.566;2023-02-28T00:48:27;99.25;;;41.92;;
42364;SDS011;28498;54.400;18.566;2023-02-28T00:50:54;93.75;;;44.55;;
42364;SDS011;28498;54.400;18.566;2023-02-28T00:53:21;107.00;;;46.35;;
42364;SDS011;28498;54.400;18.566;2023-02-28T00:55:49;93.75;;;42.92;;
42364;SDS011;28498;54.400;18.566;2023-02-28T00:58:16;97.53;;;41.92;;
42364;SDS011;28498;54.400;18.566;2023-02-28T01:00:43;83.90;;;39.00;;
42364;SDS011;28498;54.400;18.566;2023-02-28T01:03:16;96.28;;;44.00;;
42364;SDS011;28498;54.400;18.566;2023-02-28T01:05:44;82.65;;;37.45;;
42364;SDS011;28498;54.400;18.566;2023-02-28T01:08:11;99.18;;;42.95;;
42364;SDS011;28498;54.400;18.566;2023-02-28T01:10:40;106.38;;;45.30;;
42364;SDS011;28498;54.400;18.566;2023-02-28T01:13:07;90.75;;;41.35;;
42364;SDS011;28498;54.400;18.566;2023-02-28T01:15:34;95.35;;;44.22;;
42364;SDS011;28498;54.400;18.566;2023-02-28T01:18:01;99.63;;;42.78;;
42364;SDS011;28498;54.400;18.566;2023-02-28T01:20:28;85.75;;;37.45;;
42364;SDS011;28498;54.400;18.566;2023-02-28T01:22:55;82.68;;;37.33;;
42364;SDS011;28498;54.400;18.566;2023-02-28T01:25:22;83.53;;;37.55;;
42364;SDS011;28498;54.400;18.566;2023-02-28T01:27:49;94.20;;;39.35;;
42364;SDS011;28498;54.400;18.566;2023-02-28T01:30:16;80.20;;;36.88;;
42364;SDS011;28498;54.400;18.566;2023-02-28T01:32:43;80.05;;;36.00;;
42364;SDS011;28498;54.400;18.566;2023-02-28T01:35:10;82.75;;;37.05;;
42364;SDS011;28498;54.400;18.566;2023-02-28T01:37:37;91.68;;;38.08;;
42364;SDS011;28498;54.400;18.566;2023-02-28T01:40:04;75.70;;;34.63;;
42364;SDS011;28498;54.400;18.566;2023-02-28T01:42:32;70.22;;;31.73;;
42364;SDS011;28498;54.400;18.566;2023-02-28T01:47:44;56.08;;;25.15;;
42364;SDS011;28498;54.400;18.566;2023-02-28T01:50:14;56.70;;;25.58;;
42364;SDS011;28498;54.400;18.566;2023-02-28T01:52:45;43.85;;;22.00;;
42364;SDS011;28498;54.400;18.566;2023-02-28T01:55:15;47.08;;;23.45;;
42364;SDS011;28498;54.400;18.566;2023-02-28T01:57:48;52.92;;;25.30;;
42364;SDS011;28498;54.400;18.566;2023-02-28T02:00:20;48.33;;;23.05;;
42364;SDS011;28498;54.400;18.566;2023-02-28T02:02:50;57.72;;;25.05;;
42364;SDS011;28498;54.400;18.566;2023-02-28T02:05:22;68.97;;;29.02;;
42364;SDS011;28498;54.400;18.566;2023-02-28T02:07:52;62.75;;;26.42;;
42364;SDS011;28498;54.400;18.566;2023-02-28T02:10:27;47.20;;;21.60;;
42364;SDS011;28498;54.400;18.566;2023-02-28T02:31:06;50.65;;;21.60;;
42364;SDS011;28498;54.400;18.566;2023-02-28T02:42:16;30.83;;;15.43;;
42364;SDS011;28498;54.400;18.566;2023-02-28T02:45:00;34.80;;;15.32;;
42364;SDS011;28498;54.400;18.566;2023-02-28T02:47:31;36.83;;;16.25;;
42364;SDS011;28498;54.400;18.566;2023-02-28T02:50:01;34.58;;;16.65;;
42364;SDS011;28498;54.400;18.566;2023-02-28T02:52:36;28.92;;;16.50;;
42364;SDS011;28498;54.400;18.566;2023-02-28T02:55:09;36.00;;;15.85;;
42364;SDS011;28498;54.400;18.566;2023-02-28T02:57:49;28.73;;;14.93;;
42364;SDS011;28498;54.400;18.566;2023-02-28T03:00:25;28.30;;;13.30;;
42364;SDS011;28498;54.400;18.566;2023-02-28T03:02:56;31.30;;;12.85;;
42364;SDS011;28498;54.400;18.566;2023-02-28T03:05:26;21.20;;;12.70;;
42364;SDS011;28498;54.400;18.566;2023-02-28T03:07:56;31.27;;;13.50;;
42364;SDS011;28498;54.400;18.566;2023-02-28T03:18:36;21.13;;;8.88;;
42364;SDS011;28498;54.400;18.566;2023-02-28T03:21:14;26.90;;;10.32;;
42364;SDS011;28498;54.400;18.566;2023-02-28T03:26:32;28.88;;;10.32;;
42364;SDS011;28498;54.400;18.566;2023-02-28T03:29:15;16.42;;;7.97;;
42364;SDS011;28498;54.400;18.566;2023-02-28T03:34:29;19.92;;;8.18;;
42364;SDS011;28498;54.400;18.566;2023-02-28T03:37:02;16.30;;;7.68;;
42364;SDS011;28498;54.400;18.566;2023-02-28T03:39:55;16.80;;;8.35;;
42364;SDS011;28498;54.400;18.566;2023-02-28T03:42:27;17.35;;;7.82;;
42364;SDS011;28498;54.400;18.566;2023-02-28T03:44:58;15.93;;;7.55;;
42364;SDS011;28498;54.400;18.566;2023-02-28T03:47:31;16.40;;;7.93;;
42364;SDS011;28498;54.400;18.566;2023-02-28T03:50:08;23.50;;;9.25;;
42364;SDS011;28498;54.400;18.566;2023-02-28T03:52:40;19.48;;;8.45;;
42364;SDS011;28498;54.400;18.566;2023-02-28T03:55:13;23.90;;;8.10;;
42364;SDS011;28498;54.400;18.566;2023-02-28T04:00:18;28.65;;;10.63;;
42364;SDS011;28498;54.400;18.566;2023-02-28T04:02:52;19.15;;;9.48;;
42364;SDS011;28498;54.400;18.566;2023-02-28T04:05:20;25.92;;;10.82;;
42364;SDS011;28498;54.400;18.566;2023-02-28T04:07:48;27.23;;;11.10;;
42364;SDS011;28498;54.400;18.566;2023-02-28T04:10:15;20.45;;;10.55;;
42364;SDS011;28498;54.400;18.566;2023-02-28T04:12:43;26.80;;;12.82;;
42364;SDS011;28498;54.400;18.566;2023-02-28T04:15:10;25.60;;;11.05;;
42364;SDS011;28498;54.400;18.566;2023-02-28T04:17:37;28.33;;;12.93;;
42364;SDS011;28498;54.400;18.566;2023-02-28T04:20:05;20.15;;;11.25;;
42364;SDS011;28498;54.400;18.566;2023-02-28T04:22:35;28.75;;;12.18;;
42364;SDS011;28498;54.400;18.566;2023-02-28T04:25:04;25.00;;;12.95;;
42364;SDS011;28498;54.400;18.566;2023-02-28T04:27:32;23.45;;;11.10;;
42364;SDS011;28498;54.400;18.566;2023-02-28T04:29:59;29.58;;;13.30;;
42364;SDS011;28498;54.400;18.566;2023-02-28T04:32:26;30.13;;;12.30;;
42364;SDS011;28498;54.400;18.566;2023-02-28T04:34:53;27.17;;;13.38;;
42364;SDS011;28498;54.400;18.566;2023-02-28T04:37:20;22.42;;;11.23;;
42364;SDS011;28498;54.400;18.566;2023-02-28T04:39:47;21.70;;;11.00;;
42364;SDS011;28498;54.400;18.566;2023-02-28T04:42:14;26.33;;;12.23;;
42364;SDS011;28498;54.400;18.566;2023-02-28T04:44:41;26.83;;;11.68;;
42364;SDS011;28498;54.400;18.566;2023-02-28T04:47:08;23.40;;;11.05;;
42364;SDS011;28498;54.400;18.566;2023-02-28T04:49:35;22.58;;;12.30;;
42364;SDS011;28498;54.400;18.566;2023-02-28T04:52:02;22.98;;;11.57;;
42364;SDS011;28498;54.400;18.566;2023-02-28T04:54:30;23.10;;;10.55;;
42364;SDS011;28498;54.400;18.566;2023-02-28T04:56:56;21.02;;;11.20;;
42364;SDS011;28498;54.400;18.566;2023-02-28T04:59:23;20.95;;;12.05;;
42364;SDS011;28498;54.400;18.566;2023-02-28T05:01:50;23.40;;;10.63;;
42364;SDS011;28498;54.400;18.566;2023-02-28T05:04:18;25.25;;;11.82;;
42364;SDS011;28498;54.400;18.566;2023-02-28T05:06:45;21.83;;;10.00;;
42364;SDS011;28498;54.400;18.566;2023-02-28T05:09:11;21.70;;;12.65;;
42364;SDS011;28498;54.400;18.566;2023-02-28T05:11:39;22.63;;;10.88;;
42364;SDS011;28498;54.400;18.566;2023-02-28T05:14:09;21.60;;;11.80;;
42364;SDS011;28498;54.400;18.566;2023-02-28T05:16:38;25.33;;;11.80;;
42364;SDS011;28498;54.400;18.566;2023-02-28T05:19:05;22.73;;;10.73;;
42364;SDS011;28498;54.400;18.566;2023-02-28T05:21:33;23.42;;;10.70;;
42364;SDS011;28498;54.400;18.566;2023-02-28T05:24:11;22.92;;;10.32;;
42364;SDS011;28498;54.400;18.566;2023-02-28T05:26:39;24.70;;;10.82;;
42364;SDS011;28498;54.400;18.566;2023-02-28T05:29:08;21.55;;;10.27;;
42364;SDS011;28498;54.400;18.566;2023-02-28T05:31:36;22.70;;;10.38;;
42364;SDS011;28498;54.400;18.566;2023-02-28T05:34:03;17.38;;;9.73;;
42364;SDS011;28498;54.400;18.566;2023-02-28T05:36:30;19.55;;;8.77;;
42364;SDS011;28498;54.400;18.566;2023-02-28T05:38:58;21.65;;;9.38;;
42364;SDS011;28498;54.400;18.566;2023-02-28T05:41:25;17.58;;;10.25;;
42364;SDS011;28498;54.400;18.566;2023-02-28T05:43:53;24.67;;;9.57;;
42364;SDS011;28498;54.400;18.566;2023-02-28T05:46:20;18.15;;;9.48;;
42364;SDS011;28498;54.400;18.566;2023-02-28T05:48:47;16.50;;;9.38;;
42364;SDS011;28498;54.400;18.566;2023-02-28T05:51:15;20.27;;;7.85;;
42364;SDS011;28498;54.400;18.566;2023-02-28T05:53:43;19.02;;;9.13;;
42364;SDS011;28498;54.400;18.566;2023-02-28T05:56:10;19.70;;;9.75;;
42364;SDS011;28498;54.400;18.566;2023-02-28T05:58:37;14.80;;;8.10;;
42364;SDS011;28498;54.400;18.566;2023-02-28T06:01:22;16.58;;;8.80;;
42364;SDS011;28498;54.400;18.566;2023-02-28T06:03:51;17.98;;;8.38;;
42364;SDS011;28498;54.400;18.566;2023-02-28T06:06:18;20.83;;;7.68;;
42364;SDS011;28498;54.400;18.566;2023-02-28T06:08:45;14.55;;;8.77;;
42364;SDS011;28498;54.400;18.566;2023-02-28T06:11:12;14.95;;;7.32;;
42364;SDS011;28498;54.400;18.566;2023-02-28T06:13:39;17.50;;;8.65;;
42364;SDS011;28498;54.400;18.566;2023-02-28T06:16:07;23.23;;;8.40;;
42364;SDS011;28498;54.400;18.566;2023-02-28T06:18:36;15.55;;;7.85;;
42364;SDS011;28498;54.400;18.566;2023-02-28T06:21:04;19.23;;;8.45;;
42364;SDS011;28498;54.400;18.566;2023-02-28T06:23:31;18.73;;;9.07;;
42364;SDS011;28498;54.400;18.566;2023-02-28T06:25:58;17.33;;;7.75;;
42364;SDS011;28498;54.400;18.566;2023-02-28T06:28:25;14.32;;;6.00;;
42364;SDS011;28498;54.400;18.566;2023-02-28T06:30:52;11.35;;;6.13;;
42364;SDS011;28498;54.400;18.566;2023-02-28T06:33:19;17.88;;;7.70;;
42364;SDS011;28498;54.400;18.566;2023-02-28T06:35:47;14.23;;;7.28;;
42364;SDS011;28498;54.400;18.566;2023-02-28T06:38:16;16.60;;;8.00;;
42364;SDS011;28498;54.400;18.566;2023-02-28T06:40:44;16.00;;;8.32;;
42364;SDS011;28498;54.400;18.566;2023-02-28T06:43:18;16.20;;;8.80;;
42364;SDS011;28498;54.400;18.566;2023-02-28T06:45:45;14.63;;;7.47;;
42364;SDS011;28498;54.400;18.566;2023-02-28T06:48:12;15.40;;;6.97;;
42364;SDS011;28498;54.400;18.566;2023-02-28T06:50:40;19.02;;;8.13;;
42364;SDS011;28498;54.400;18.566;2023-02-28T06:53:07;20.70;;;10.68;;
42364;SDS011;28498;54.400;18.566;2023-02-28T06:55:34;20.05;;;9.18;;
42364;SDS011;28498;54.400;18.566;2023-02-28T06:58:03;17.70;;;10.13;;
42364;SDS011;28498;54.400;18.566;2023-02-28T07:00:41;19.23;;;10.68;;
42364;SDS011;28498;54.400;18.566;2023-02-28T07:03:08;17.55;;;8.55;;
42364;SDS011;28498;54.400;18.566;2023-02-28T07:05:36;23.48;;;10.48;;
42364;SDS011;28498;54.400;18.566;2023-02-28T07:08:04;23.45;;;10.90;;
42364;SDS011;28498;54.400;18.566;2023-02-28T07:10:32;20.33;;;11.32;;
42364;SDS011;28498;54.400;18.566;2023-02-28T07:13:00;28.25;;;11.35;;
42364;SDS011;28498;54.400;18.566;2023-02-28T07:15:27;28.77;;;11.10;;
42364;SDS011;28498;54.400;18.566;2023-02-28T07:17:54;22.63;;;10.48;;
42364;SDS011;28498;54.400;18.566;2023-02-28T07:20:23;19.02;;;10.30;;
42364;SDS011;28498;54.400;18.566;2023-02-28T07:22:50;21.35;;;9.38;;
42364;SDS011;28498;54.400;18.566;2023-02-28T07:25:23;19.83;;;7.50;;
42364;SDS011;28498;54.400;18.566;2023-02-28T07:27:51;21.35;;;9.50;;
42364;SDS011;28498;54.400;18.566;2023-02-28T07:30:19;20.45;;;9.40;;
42364;SDS011;28498;54.400;18.566;2023-02-28T07:32:47;19.20;;;8.63;;
42364;SDS011;28498;54.400;18.566;2023-02-28T07:35:14;16.67;;;7.97;;
42364;SDS011;28498;54.400;18.566;2023-02-28T07:37:44;15.23;;;7.13;;
42364;SDS011;28498;54.400;18.566;2023-02-28T07:40:13;16.00;;;7.68;;
42364;SDS011;28498;54.400;18.566;2023-02-28T07:42:41;17.95;;;8.25;;
42364;SDS011;28498;54.400;18.566;2023-02-28T07:45:08;19.08;;;8.85;;
42364;SDS011;28498;54.400;18.566;2023-02-28T07:47:38;20.65;;;7.15;;
42364;SDS011;28498;54.400;18.566;2023-02-28T07:50:06;15.40;;;8.05;;
42364;SDS011;28498;54.400;18.566;2023-02-28T07:52:35;20.00;;;8.98;;
42364;SDS011;28498;54.400;18.566;2023-02-28T07:55:03;15.57;;;7.95;;
42364;SDS011;28498;54.400;18.566;2023-02-28T07:57:31;16.55;;;7.93;;
42364;SDS011;28498;54.400;18.566;2023-02-28T08:00:05;21.95;;;8.88;;
42364;SDS011;28498;54.400;18.566;2023-02-28T08:02:35;18.10;;;8.07;;
42364;SDS011;28498;54.400;18.566;2023-02-28T08:05:02;17.85;;;8.70;;
42364;SDS011;28498;54.400;18.566;2023-02-28T08:07:30;12.65;;;7.30;;
42364;SDS011;28498;54.400;18.566;2023-02-28T08:09:57;16.38;;;8.35;;
42364;SDS011;28498;54.400;18.566;2023-02-28T08:12:24;15.23;;;8.13;;
42364;SDS011;28498;54.400;18.566;2023-02-28T08:14:51;18.90;;;9.20;;
42364;SDS011;28498;54.400;18.566;2023-02-28T08:17:18;21.42;;;9.05;;
42364;SDS011;28498;54.400;18.566;2023-02-28T08:19:46;16.35;;;7.93;;
42364;SDS011;28498;54.400;18.566;2023-02-28T08:22:13;18.90;;;9.63;;
42364;SDS011;28498;54.400;18.566;2023-02-28T08:24:41;24.00;;;10.15;;
42364;SDS011;28498;54.400;18.566;2023-02-28T08:27:09;25.73;;;9.52;;
42364;SDS011;28498;54.400;18.566;2023-02-28T08:29:37;17.88;;;8.60;;
42364;SDS011;28498;54.400;18.566;2023-02-28T08:32:05;18.50;;;9.27;;
42364;SDS011;28498;54.400;18.566;2023-02-28T08:34:42;19.38;;;10.30;;
42364;SDS011;28498;54.400;18.566;2023-02-28T08:37:12;21.23;;;10.02;;
42364;SDS011;28498;54.400;18.566;2023-02-28T08:39:39;27.45;;;12.00;;
42364;SDS011;28498;54.400;18.566;2023-02-28T08:42:06;22.58;;;10.93;;
42364;SDS011;28498;54.400;18.566;2023-02-28T08:44:33;20.63;;;10.07;;
42364;SDS011;28498;54.400;18.566;2023-02-28T08:47:00;20.15;;;9.93;;
42364;SDS011;28498;54.400;18.566;2023-02-28T08:49:27;25.52;;;10.98;;
42364;SDS011;28498;54.400;18.566;2023-02-28T08:51:54;24.30;;;11.75;;
42364;SDS011;28498;54.400;18.566;2023-02-28T08:54:23;22.55;;;10.18;;
42364;SDS011;28498;54.400;18.566;2023-02-28T08:56:51;19.17;;;10.05;;
42364;SDS011;28498;54.400;18.566;2023-02-28T08:59:18;24.45;;;9.60;;
42364;SDS011;28498;54.400;18.566;2023-02-28T09:01:45;18.45;;;9.85;;
42364;SDS011;28498;54.400;18.566;2023-02-28T09:04:12;20.05;;;9.63;;
42364;SDS011;28498;54.400;18.566;2023-02-28T09:06:45;20.00;;;9.77;;
42364;SDS011;28498;54.400;18.566;2023-02-28T09:09:11;23.15;;;9.82;;
42364;SDS011;28498;54.400;18.566;2023-02-28T09:11:38;22.17;;;8.73;;
42364;SDS011;28498;54.400;18.566;2023-02-28T09:14:05;17.80;;;7.85;;
42364;SDS011;28498;54.400;18.566;2023-02-28T09:16:33;11.95;;;7.22;;
42364;SDS011;28498;54.400;18.566;2023-02-28T09:19:01;17.60;;;7.55;;
42364;SDS011;28498;54.400;18.566;2023-02-28T09:21:28;16.23;;;7.60;;
42364;SDS011;28498;54.400;18.566;2023-02-28T09:23:55;16.55;;;8.63;;
42364;SDS011;28498;54.400;18.566;2023-02-28T09:26:23;19.52;;;8.57;;
42364;SDS011;28498;54.400;18.566;2023-02-28T09:29:00;11.30;;;6.55;;
42364;SDS011;28498;54.400;18.566;2023-02-28T09:31:28;15.63;;;7.90;;
42364;SDS011;28498;54.400;18.566;2023-02-28T09:33:56;15.73;;;7.80;;
42364;SDS011;28498;54.400;18.566;2023-02-28T09:36:24;16.50;;;7.93;;
42364;SDS011;28498;54.400;18.566;2023-02-28T09:39:06;14.52;;;7.50;;
42364;SDS011;28498;54.400;18.566;2023-02-28T09:41:37;17.08;;;8.13;;
42364;SDS011;28498;54.400;18.566;2023-02-28T09:44:16;13.02;;;6.40;;
42364;SDS011;28498;54.400;18.566;2023-02-28T09:47:45;13.00;;;6.15;;
42364;SDS011;28498;54.400;18.566;2023-02-28T09:52:53;10.02;;;5.63;;
42364;SDS011;28498;54.400;18.566;2023-02-28T09:55:22;9.30;;;4.47;;
42364;SDS011;28498;54.400;18.566;2023-02-28T09:58:32;10.48;;;5.20;;
42364;SDS011;28498;54.400;18.566;2023-02-28T10:01:19;14.05;;;5.15;;
42364;SDS011;28498;54.400;18.566;2023-02-28T10:03:58;10.98;;;4.75;;
42364;SDS011;28498;54.400;18.566;2023-02-28T10:06:30;10.52;;;4.60;;
42364;SDS011;28498;54.400;18.566;2023-02-28T10:09:17;10.35;;;4.70;;
42364;SDS011;28498;54.400;18.566;2023-02-28T10:11:53;11.27;;;4.70;;
42364;SDS011;28498;54.400;18.566;2023-02-28T10:16:56;5.55;;;3.08;;
42364;SDS011;28498;54.400;18.566;2023-02-28T10:22:24;9.75;;;4.70;;
42364;SDS011;28498;54.400;18.566;2023-02-28T10:25:26;8.75;;;4.40;;
42364;SDS011;28498;54.400;18.566;2023-02-28T10:28:04;8.30;;;4.60;;
42364;SDS011;28498;54.400;18.566;2023-02-28T10:30:42;10.60;;;4.95;;
42364;SDS011;28498;54.400;18.566;2023-02-28T10:33:15;8.02;;;3.65;;
42364;SDS011;28498;54.400;18.566;2023-02-28T10:35:50;10.65;;;4.13;;
42364;SDS011;28498;54.400;18.566;2023-02-28T10:38:22;9.20;;;3.88;;
42364;SDS011;28498;54.400;18.566;2023-02-28T10:43:35;8.25;;;3.42;;
42364;SDS011;28498;54.400;18.566;2023-02-28T10:51:05;10.95;;;4.43;;
42364;SDS011;28498;54.400;18.566;2023-02-28T10:53:39;6.22;;;3.53;;
42364;SDS011;28498;54.400;18.566;2023-02-28T10:56:26;7.70;;;3.30;;
42364;SDS011;28498;54.400;18.566;2023-02-28T10:58:56;9.02;;;3.40;;
42364;SDS011;28498;54.400;18.566;2023-02-28T11:01:26;7.65;;;3.58;;
42364;SDS011;28498;54.400;18.566;2023-02-28T11:04:01;7.00;;;3.97;;
42364;SDS011;28498;54.400;18.566;2023-02-28T11:06:30;6.35;;;3.28;;
42364;SDS011;28498;54.400;18.566;2023-02-28T11:08:59;10.32;;;3.55;;
42364;SDS011;28498;54.400;18.566;2023-02-28T11:11:45;5.90;;;2.55;;
42364;SDS011;28498;54.400;18.566;2023-02-28T11:14:22;7.50;;;3.35;;
42364;SDS011;28498;54.400;18.566;2023-02-28T11:16:52;7.78;;;2.85;;
42364;SDS011;28498;54.400;18.566;2023-02-28T11:19:25;7.88;;;3.38;;
42364;SDS011;28498;54.400;18.566;2023-02-28T11:22:04;5.97;;;2.78;;
42364;SDS011;28498;54.400;18.566;2023-02-28T11:28:03;8.23;;;2.90;;
42364;SDS011;28498;54.400;18.566;2023-02-28T11:30:34;6.65;;;2.92;;
42364;SDS011;28498;54.400;18.566;2023-02-28T11:33:30;5.38;;;2.83;;
42364;SDS011;28498;54.400;18.566;2023-02-28T11:36:11;7.25;;;2.70;;
42364;SDS011;28498;54.400;18.566;2023-02-28T11:38:47;6.07;;;3.13;;
42364;SDS011;28498;54.400;18.566;2023-02-28T11:41:31;5.85;;;2.80;;
42364;SDS011;28498;54.400;18.566;2023-02-28T11:47:27;7.45;;;2.72;;
42364;SDS011;28498;54.400;18.566;2023-02-28T11:53:14;6.95;;;2.83;;
42364;SDS011;28498;54.400;18.566;2023-02-28T11:58:41;7.18;;;2.90;;
42364;SDS011;28498;54.400;18.566;2023-02-28T12:04:13;5.55;;;2.55;;
42364;SDS011;28498;54.400;18.566;2023-02-28T12:18:50;5.60;;;2.55;;
42364;SDS011;28498;54.400;18.566;2023-02-28T12:23:56;5.57;;;2.40;;
42364;SDS011;28498;54.400;18.566;2023-02-28T12:32:29;5.15;;;2.40;;
42364;SDS011;28498;54.400;18.566;2023-02-28T12:38:20;6.18;;;2.63;;
42364;SDS011;28498;54.400;18.566;2023-02-28T12:41:34;4.57;;;2.40;;
42364;SDS011;28498;54.400;18.566;2023-02-28T12:44:01;6.50;;;2.47;;
42364;SDS011;28498;54.400;18.566;2023-02-28T12:46:33;7.93;;;2.45;;
42364;SDS011;28498;54.400;18.566;2023-02-28T12:49:10;3.95;;;1.92;;
42364;SDS011;28498;54.400;18.566;2023-02-28T12:51:42;5.53;;;2.45;;
42364;SDS011;28498;54.400;18.566;2023-02-28T13:10:20;5.68;;;2.30;;
42364;SDS011;28498;54.400;18.566;2023-02-28T13:12:51;4.22;;;1.92;;
42364;SDS011;28498;54.400;18.566;2023-02-28T13:15:21;6.15;;;2.35;;
42364;SDS011;28498;54.400;18.566;2023-02-28T13:17:55;11.57;;;4.00;;
42364;SDS011;28498;54.400;18.566;2023-02-28T13:23:02;6.10;;;2.38;;
42364;SDS011;28498;54.400;18.566;2023-02-28T13:28:11;5.57;;;2.25;;
42364;SDS011;28498;54.400;18.566;2023-02-28T13:38:42;4.13;;;1.95;;
42364;SDS011;28498;54.400;18.566;2023-02-28T13:49:31;6.38;;;2.78;;
42364;SDS011;28498;54.400;18.566;2023-02-28T13:57:10;7.53;;;2.90;;
42364;SDS011;28498;54.400;18.566;2023-02-28T14:02:40;7.03;;;3.50;;
42364;SDS011;28498;54.400;18.566;2023-02-28T14:05:29;8.57;;;2.90;;
42364;SDS011;28498;54.400;18.566;2023-02-28T14:07:59;5.60;;;2.97;;
42364;SDS011;28498;54.400;18.566;2023-02-28T14:10:42;9.85;;;4.03;;
42364;SDS011;28498;54.400;18.566;2023-02-28T14:15:57;6.82;;;3.05;;
42364;SDS011;28498;54.400;18.566;2023-02-28T14:18:32;6.30;;;3.05;;
42364;SDS011;28498;54.400;18.566;2023-02-28T14:23:50;9.55;;;3.35;;
42364;SDS011;28498;54.400;18.566;2023-02-28T14:26:41;8.02;;;3.45;;
42364;SDS011;28498;54.400;18.566;2023-02-28T14:32:18;6.20;;;2.88;;
42364;SDS011;28498;54.400;18.566;2023-02-28T14:37:46;6.78;;;3.50;;
42364;SDS011;28498;54.400;18.566;2023-02-28T14:40:16;7.68;;;3.30;;
42364;SDS011;28498;54.400;18.566;2023-02-28T14:42:48;8.50;;;4.35;;
42364;SDS011;28498;54.400;18.566;2023-02-28T14:45:24;8.52;;;4.07;;
42364;SDS011;28498;54.400;18.566;2023-02-28T14:47:53;9.07;;;3.58;;
42364;SDS011;28498;54.400;18.566;2023-02-28T14:50:21;7.35;;;3.03;;
42364;SDS011;28498;54.400;18.566;2023-02-28T14:52:58;9.52;;;3.72;;
42364;SDS011;28498;54.400;18.566;2023-02-28T14:55:28;8.30;;;3.88;;
42364;SDS011;28498;54.400;18.566;2023-02-28T14:58:02;9.77;;;4.22;;
42364;SDS011;28498;54.400;18.566;2023-02-28T15:00:33;8.30;;;4.10;;
42364;SDS011;28498;54.400;18.566;2023-02-28T15:05:52;9.15;;;4.30;;
42364;SDS011;28498;54.400;18.566;2023-02-28T15:08:20;11.68;;;4.10;;
42364;SDS011;28498;54.400;18.566;2023-02-28T15:10:51;11.23;;;4.32;;
42364;SDS011;28498;54.400;18.566;2023-02-28T15:13:22;10.20;;;3.80;;
42364;SDS011;28498;54.400;18.566;2023-02-28T15:21:25;6.57;;;3.58;;
42364;SDS011;28498;54.400;18.566;2023-02-28T15:24:10;7.68;;;3.95;;
42364;SDS011;28498;54.400;18.566;2023-02-28T15:26:39;6.38;;;3.42;;
42364;SDS011;28498;54.400;18.566;2023-02-28T15:29:14;8.57;;;4.35;;
42364;SDS011;28498;54.400;18.566;2023-02-28T15:31:51;9.70;;;3.65;;
42364;SDS011;28498;54.400;18.566;2023-02-28T15:34:37;6.88;;;3.50;;
42364;SDS011;28498;54.400;18.566;2023-02-28T15:42:41;11.93;;;4.32;;
42364;SDS011;28498;54.400;18.566;2023-02-28T15:45:32;11.95;;;4.20;;
42364;SDS011;28498;54.400;18.566;2023-02-28T15:48:05;10.30;;;4.32;;
42364;SDS011;28498;54.400;18.566;2023-02-28T15:50:42;10.68;;;4.63;;
42364;SDS011;28498;54.400;18.566;2023-02-28T15:53:13;12.85;;;5.32;;
42364;SDS011;28498;54.400;18.566;2023-02-28T15:55:43;10.05;;;5.00;;
42364;SDS011;28498;54.400;18.566;2023-02-28T15:58:11;10.30;;;4.70;;
42364;SDS011;28498;54.400;18.566;2023-02-28T16:00:39;9.52;;;4.88;;
42364;SDS011;28498;54.400;18.566;2023-02-28T16:03:27;11.45;;;5.00;;
42364;SDS011;28498;54.400;18.566;2023-02-28T16:06:34;14.13;;;7.03;;
42364;SDS011;28498;54.400;18.566;2023-02-28T16:09:10;8.40;;;4.70;;
42364;SDS011;28498;54.400;18.566;2023-02-28T16:11:47;16.00;;;5.20;;
42364;SDS011;28498;54.400;18.566;2023-02-28T16:14:19;10.57;;;5.18;;
42364;SDS011;28498;54.400;18.566;2023-02-28T16:16:54;12.32;;;5.35;;
42364;SDS011;28498;54.400;18.566;2023-02-28T16:19:23;13.07;;;4.68;;
42364;SDS011;28498;54.400;18.566;2023-02-28T16:21:50;10.75;;;5.03;;
42364;SDS011;28498;54.400;18.566;2023-02-28T16:24:17;9.40;;;4.75;;
42364;SDS011;28498;54.400;18.566;2023-02-28T16:26:48;9.35;;;4.65;;
42364;SDS011;28498;54.400;18.566;2023-02-28T16:29:23;12.20;;;5.10;;
42364;SDS011;28498;54.400;18.566;2023-02-28T16:32:04;10.87;;;5.20;;
42364;SDS011;28498;54.400;18.566;2023-02-28T16:34:32;10.52;;;5.35;;
42364;SDS011;28498;54.400;18.566;2023-02-28T16:36:59;9.85;;;4.68;;
42364;SDS011;28498;54.400;18.566;2023-02-28T16:39:26;11.73;;;5.05;;
42364;SDS011;28498;54.400;18.566;2023-02-28T16:41:53;11.88;;;4.85;;
42364;SDS011;28498;54.400;18.566;2023-02-28T16:44:29;13.38;;;5.70;;
42364;SDS011;28498;54.400;18.566;2023-02-28T16:46:59;8.57;;;4.72;;
42364;SDS011;28498;54.400;18.566;2023-02-28T16:49:27;12.00;;;5.28;;
42364;SDS011;28498;54.400;18.566;2023-02-28T16:51:54;11.32;;;6.07;;
42364;SDS011;28498;54.400;18.566;2023-02-28T16:54:21;12.70;;;6.00;;
42364;SDS011;28498;54.400;18.566;2023-02-28T16:56:48;14.57;;;5.10;;
42364;SDS011;28498;54.400;18.566;2023-02-28T16:59:18;11.90;;;5.50;;
42364;SDS011;28498;54.400;18.566;2023-02-28T17:01:48;12.18;;;5.50;;
42364;SDS011;28498;54.400;18.566;2023-02-28T17:04:16;15.48;;;6.63;;
42364;SDS011;28498;54.400;18.566;2023-02-28T17:06:43;16.75;;;7.10;;
42364;SDS011;28498;54.400;18.566;2023-02-28T17:09:17;11.98;;;5.60;;
42364;SDS011;28498;54.400;18.566;2023-02-28T17:11:49;13.07;;;6.43;;
42364;SDS011;28498;54.400;18.566;2023-02-28T17:14:16;12.68;;;6.22;;
42364;SDS011;28498;54.400;18.566;2023-02-28T17:16:43;14.85;;;6.93;;
42364;SDS011;28498;54.400;18.566;2023-02-28T17:19:11;14.52;;;7.35;;
42364;SDS011;28498;54.400;18.566;2023-02-28T17:21:40;17.95;;;7.15;;
42364;SDS011;28498;54.400;18.566;2023-02-28T17:24:17;17.33;;;7.20;;
42364;SDS011;28498;54.400;18.566;2023-02-28T17:26:59;19.90;;;8.43;;
42364;SDS011;28498;54.400;18.566;2023-02-28T17:29:27;16.63;;;7.82;;
42364;SDS011;28498;54.400;18.566;2023-02-28T17:31:54;18.23;;;8.15;;
42364;SDS011;28498;54.400;18.566;2023-02-28T17:34:25;18.92;;;8.77;;